Station LORO1 - Lorain Harbor, OH Image indicating link to RSS feed of recent meteorological observations for station LORO1


Conditions at LORO1 as of
(11:30 am EDT)
1530 GMT on 07/15/2024:
     

Click on the graph icon in the table below to see a time series plot of the last five days of that observation.

5-day plot - Wind Direction Wind Direction (WDIR): W ( 270 deg true )
5-day plot - Wind Speed Wind Speed (WSPD): 12 kts
5-day plot - Wind Gust Wind Gust (GST): 14 kts
5-day plot - Air Temperature Air Temperature (ATMP): 79.0 °F
5-day plot - Wind Speed at 10 Meters Wind Speed at 10 meters (WSPD10M): 14 kts
5-day plot - Wind Speed at 20 Meters Wind Speed at 20 meters (WSPD20M): 16 kts
5-day plot -  Wind Speed, Wind Gust and Atmospheric Pressure Combined plot of Wind Speed, Gust, and Air Pressure
Previous observations
TIME
(EDT)
5-day plot - Wind Direction
WDIR
 
5-day plot - Wind Speed
WSPD
kts
5-day plot - Wind Gust
GST
kts
5-day plot - Wave Height
WVHT
ft
5-day plot - Dominant Wave Period
DPD
sec
5-day plot - Average Wave Period
APD
sec
5-day plot - Mean Wave Direction
MWD
 
5-day plot - Atmospheric Pressure
PRES
in
5-day plot - Pressure Tendency
PTDY
in
5-day plot - Air Temperature
ATMP
°F
5-day plot - Water Temperature
WTMP
°F
5-day plot - Dew Point
DEWP
°F
5-day plot - Salinity
SAL
psu
5-day plot - Visibility
VIS
nmi
5-day plot - Tide (above MLLW)
TIDE
ft
2024-07-15 11:20 am W 11 16------ 79.3-----
2024-07-15 11:10 amWSW 14 17------ 79.3-----
2024-07-15 11:00 amWSW 12 15------ 79.2-----
2024-07-15 10:50 amWSW 12 14------ 79.0-----
2024-07-15 10:40 amWSW 12 15------ 78.6-----
2024-07-15 10:30 amWSW 13 16------ 78.6-----
2024-07-15 10:20 amWSW 14 17------ 78.4-----
2024-07-15 10:10 amWSW 14 16------ 78.6-----
2024-07-15 10:00 am SW 8 11------ 78.4-----
2024-07-15 09:50 am SW 8 10------ 78.1-----
2024-07-15 09:40 am SW 7 9------ 78.3-----
2024-07-15 09:30 amSSW 8 10------ 78.6-----
2024-07-15 09:20 amSSW 8 10------ 78.6-----
2024-07-15 09:10 amSSW 8 10------ 78.1-----
2024-07-15 09:00 amSSW 9 11------ 77.9-----
2024-07-15 08:50 am SW 9 11------ 77.7-----
2024-07-15 08:40 am SW 9 12------ 77.5-----
2024-07-15 08:30 am SW 10 12------ 77.5-----
2024-07-15 08:20 amSSW 10 13------ 77.4-----
2024-07-15 08:10 am SW 10 13------ 77.4-----
2024-07-15 08:00 am SW 10 14------ 77.5-----
2024-07-15 07:50 amSSW 11 12------ 77.5-----
2024-07-15 07:40 am SW 10 13------ 77.2-----
2024-07-15 07:30 am SW 11 13------ 77.4-----
2024-07-15 07:20 am SW 11 13------ 77.4-----
2024-07-15 07:10 amSSW 11 13------ 77.5-----
2024-07-15 07:00 am SW 11 13------ 77.4-----
2024-07-15 06:50 am SW 12 13------ 77.4-----
2024-07-15 06:40 am SW 10 12------ 77.0-----
2024-07-15 06:30 amSSW 9 11------ 76.5-----
2024-07-15 06:20 amSSW 8 10------ 75.9-----
2024-07-15 06:10 amSSW 7 9------ 75.9-----
2024-07-15 06:00 amSSW 7 9------ 75.9-----
2024-07-15 05:50 amSSW 6 9------ 75.6-----
2024-07-15 05:40 amSSW 7 9------ 75.4-----
2024-07-15 05:30 amSSW 8 10------ 75.2-----
2024-07-15 05:20 amSSW 7 9------ 74.7-----
2024-07-15 05:10 amSSW 7 8------ 74.8-----
2024-07-15 05:00 amSSW 7 9------ 74.8-----
2024-07-15 04:50 amSSW 8 9------ 75.2-----
2024-07-15 04:40 amSSW 7 8------ 74.7-----
2024-07-15 04:30 amSSW 7 8------ 74.5-----
2024-07-15 04:20 amSSW 7 9------ 74.5-----
2024-07-15 04:10 amSSW 8 10------ 75.0-----
2024-07-15 04:00 amSSW 8 10------ 75.2-----
2024-07-15 03:50 amSSW 6 8------ 74.8-----
2024-07-15 03:40 am SW 7 8------ 74.8-----
2024-07-15 03:30 amSSW 6 7------ 74.3-----
2024-07-15 03:20 amSSW 6 8------ 74.3-----
2024-07-15 03:10 amSSW 7 8------ 74.1-----
2024-07-15 03:00 am SW 8 9------ 74.8-----
2024-07-15 02:50 am SW 9 11------ 75.2-----
2024-07-15 02:40 am SW 10 11------ 75.6-----
2024-07-15 02:30 am SW 10 11------ 75.4-----
2024-07-15 02:20 am SW 8 10------ 74.7-----
2024-07-15 02:10 am SW 8 10------ 74.7-----
2024-07-15 02:00 am SW 9 11------ 74.7-----
2024-07-15 01:50 amWSW 9 11------ 74.8-----
2024-07-15 01:40 amWSW 10 12------ 74.8-----
2024-07-15 01:30 amWSW 9 12------ 74.7-----
2024-07-15 01:20 amWSW 10 11------ 74.3-----
2024-07-15 01:10 am SW 9 11------ 74.1-----
2024-07-15 01:00 am SW 9 11------ 74.5-----
2024-07-15 12:50 amWSW 11 14------ 74.8-----
2024-07-15 12:40 am SW 9 11------ 74.5-----
2024-07-15 12:30 am SW 9 11------ 74.3-----
2024-07-15 12:20 am SW 10 12------ 74.5-----
2024-07-15 12:10 am SW 11 13------ 74.5-----
2024-07-15 12:00 am SW 10 11------ 74.8-----
2024-07-14 11:50 pm SW 9 11------ 74.5-----
2024-07-14 11:40 pm SW 8 10------ 74.3-----
2024-07-14 11:30 pm SW 9 11------ 74.5-----
2024-07-14 11:20 pm SW 9 11------ 74.8-----
2024-07-14 11:10 pm SW 10 12------ 75.2-----
2024-07-14 11:00 pm SW 8 10------ 74.7-----
2024-07-14 10:50 pm SW 9 11------ 75.0-----
2024-07-14 10:40 pm SW 9 10------ 75.0-----
2024-07-14 10:30 pm SW 9 10------ 74.8-----
2024-07-14 10:20 pmSSW 7 9------ 74.8-----
2024-07-14 10:10 pmSSW 7 9------ 75.2-----
2024-07-14 10:00 pm SW 6 8------ 74.8-----
2024-07-14 09:50 pmSSW 6 8------ 74.8-----
2024-07-14 09:40 pmSSW 6 8------ 74.8-----
2024-07-14 09:30 pm SW 8 11------ 75.2-----
2024-07-14 09:20 pm SW 9 12------ 75.6-----
2024-07-14 09:10 pmWSW 10 12------ 75.4-----
2024-07-14 09:00 pmWSW 11 12------ 75.7-----
2024-07-14 08:50 pmWSW 10 11------ 76.3-----
2024-07-14 08:40 pmWSW 10 11------ 76.3-----
2024-07-14 08:30 pmWSW 10 11------ 76.3-----
2024-07-14 08:20 pm SW 9 10------ 75.9-----
2024-07-14 08:10 pm SW 10 12------ 76.1-----
2024-07-14 08:00 pmWSW 10 12------ 76.3-----
2024-07-14 07:50 pmWSW 10 11------ 76.3-----
2024-07-14 07:40 pm SW 8 8------ 76.1-----
2024-07-14 07:30 pm SW 7 8------ 76.5-----
2024-07-14 07:20 pm SW 6 8------ 76.1-----
2024-07-14 07:10 pmSSW 5 7------ 75.7-----
2024-07-14 07:00 pm SW 5 6------ 75.6-----
2024-07-14 06:50 pm W 3 7------ 75.0-----
2024-07-14 06:40 pm NW 8 17------ 75.2-----
2024-07-14 06:30 pmNNW 17 31------ 74.5-----
2024-07-14 06:20 pmNNW 25 32------ 70.3-----
2024-07-14 06:10 pm W 18 26------ 76.6-----
2024-07-14 06:00 pm SW 7 14------ 79.5-----
2024-07-14 05:50 pmSSE 8-------------
2024-07-14 05:40 pmSSW 7 9------ 85.5-----
2024-07-14 05:30 pm SW 7 9------ 85.3-----
2024-07-14 05:20 pm SW 8 10------ 84.7-----
2024-07-14 05:10 pm SW 10 13------ 84.9-----
2024-07-14 05:00 pmSSW 11 15------ 85.1-----
2024-07-14 04:50 pmSSW 12 15------ 85.3-----
2024-07-14 04:40 pm SW 12 17------ 84.7-----
2024-07-14 04:30 pmSSW 10 15------ 84.6-----
2024-07-14 04:20 pm SW 9 11------ 84.6-----
2024-07-14 04:10 pmSSW 9 13------ 84.4-----
2024-07-14 04:00 pmSSW 11 13------ 83.8-----
2024-07-14 03:50 pmSSW 10 14------ 83.8-----
2024-07-14 03:40 pmSSW 13 17------ 83.5-----
2024-07-14 03:30 pmSSW 12 14------ 83.3-----
2024-07-14 03:20 pmSSW 11 16------ 82.8-----
2024-07-14 03:10 pmSSW 12 15------ 82.0-----
2024-07-14 03:00 pmSSW 11 14------ 81.9-----
2024-07-14 02:50 pmSSW 11 14------ 81.9-----
2024-07-14 02:40 pmSSW 11 12------ 81.9-----
2024-07-14 02:30 pm SW 11 14------ 82.0-----
2024-07-14 02:20 pmSSW 10 14------ 81.7-----
2024-07-14 02:10 pm SW 11 14------ 81.7-----
2024-07-14 02:00 pmSSW 10 14------ 81.7-----
2024-07-14 01:50 pmSSW 11 14------ 81.1-----
2024-07-14 01:40 pmSSW 10 12------ 80.8-----
2024-07-14 01:30 pmSSW 11 13------ 81.0-----
2024-07-14 01:20 pm SW 11 13------ 81.1-----
2024-07-14 01:10 pm SW 10 13------ 81.0-----
2024-07-14 01:00 pm SW 9 12------ 80.8-----
2024-07-14 12:50 pmSSW 10 13------ 80.6-----
2024-07-14 12:40 pm SW 12 14------ 80.4-----
2024-07-14 12:30 pm SW 11 14------ 80.4-----
2024-07-14 12:20 pm SW 10 15------ 80.1-----
2024-07-14 12:10 pm SW 9 13------ 79.9-----
2024-07-14 12:00 pm SW 11 12------ 79.7-----
2024-07-14 11:50 am SW 8 10------ 79.5-----
2024-07-14 11:40 am SW 8 9------ 79.7-----
2024-07-14 11:30 am SW 8 9------ 79.3-----
2024-07-14 11:20 amWSW 8 9------ 78.8-----
2024-07-14 11:10 amWSW 8 9------ 79.2-----
2024-07-14 11:00 amWSW 7 9------ 78.4-----
2024-07-14 10:50 am W 8 11------ 79.0-----